Punta Galea, Euskadi

latitud = 43° 22' 30''N | longitud = 003° 01' 10''W
90 metros sobre el nivel del mar | datos mensuales

Fecha, hora, temperatura, viento dirección y velocidad, humedad y presión.

  • 22-11-2017 09:00:00 | 15.80°C | Sur |19.00 km/h | 35.00% | 1001.20 hPa
  • 22-11-2017 08:00:00 | 14.80°C | Sur |14.00 km/h | 35.00% | 1001.30 hPa
  • 22-11-2017 07:00:00 | 15.40°C | Sur |14.00 km/h | 36.00% | 1001.50 hPa
  • 22-11-2017 06:00:00 | 14.50°C | Sur |11.00 km/h | 38.00% | 1002.00 hPa
  • 22-11-2017 05:00:00 | 14.10°C | Sudeste |10.00 km/h | 39.00% | 1002.80 hPa
  • 22-11-2017 04:00:00 | 12.90°C | Sur |12.00 km/h | 41.00% | 1003.30 hPa
  • 22-11-2017 03:00:00 | 13.50°C | Sudeste |13.00 km/h | 38.00% | 1004.10 hPa
  • 22-11-2017 02:00:00 | 12.30°C | Sur |11.00 km/h | 41.00% | 1004.60 hPa
  • 22-11-2017 01:00:00 | 13.30°C | Sudeste |11.00 km/h | 39.00% | 1005.30 hPa
  • 22-11-2017 00:00:00 | 13.10°C | Sur |9.00 km/h | 41.00% | 1005.60 hPa
  • 21-11-2017 23:00:00 | 14.10°C | Sur |11.00 km/h | 39.00% | 1005.80 hPa
  • 21-11-2017 22:00:00 | 12.40°C | Sudeste |11.00 km/h | 51.00% | 1006.20 hPa
  • 21-11-2017 21:00:00 | 12.40°C | Sur |10.00 km/h | 56.00% | 1006.50 hPa
  • 21-11-2017 20:00:00 | 12.10°C | Sur |10.00 km/h | 62.00% | 1006.80 hPa
  • 21-11-2017 19:00:00 | 13.20°C | Sur |8.00 km/h | 57.00% | 1007.10 hPa
  • 21-11-2017 18:00:00 | 13.90°C | Sur |8.00 km/h | 61.00% | 1007.20 hPa
  • 21-11-2017 17:00:00 | 16.50°C | Sudeste |4.00 km/h | 53.00% | 1007.90 hPa
  • 21-11-2017 16:00:00 | 18.20°C | Sudeste |5.00 km/h | 45.00% | 1008.00 hPa
  • 21-11-2017 15:00:00 | 18.50°C | Sudeste |6.00 km/h | 43.00% | 1008.50 hPa
  • 21-11-2017 14:00:00 | 17.80°C | Sudeste |8.00 km/h | 44.00% | 1009.30 hPa
  • 21-11-2017 13:00:00 | 16.40°C | Sudeste |10.00 km/h | 46.00% | 1010.00 hPa
  • 21-11-2017 12:00:00 | 15.00°C | Sudeste |12.00 km/h | 48.00% | 1011.20 hPa
  • 21-11-2017 11:00:00 | 13.00°C | Sur |11.00 km/h | 55.00% | 1011.20 hPa
  • 21-11-2017 10:00:00 | 10.90°C | Sur |11.00 km/h | 62.00% | 1011.20 hPa